ニース/コート・ダジュール の空港の天気 - METARとTAF

コート・ダジュール空港(ニース) ( LFMN / NCE ) - フランス ニース
飛行場実況気象(Metar)
観測時間07/28 14:30 CEST (07/28 12:30 UTC)
風向・風速南東 4m/s
視程10km以上
天気現象
少しの雲 雲底高度 910m
気温26℃
湿度65%
気圧1013hPa
METARLFMN 281230Z 14008KT 9999 FEW030 26/19 Q1013 NOSIG
過去の天気等 Google飛行場航空写真 Wunderground天気予報

過去48時間のMETAR

飛行場予報(TAF)
発表時間: 7/28 10:00 CEST (7/28 08:00 UTC)
予報対象時間: 28日11時 CEST ~ 29日17時 CEST
風向・風速南 3m/s
視程10km以上
少しの雲 雲底高度 760m
28日21時 CEST ~ 28日23時 CEST に徐々に
風向・風速不定 2m/s
28日23時 CEST ~ 29日9時 CEST に 確率 40% で一時的に
全天の8割程度の雲 雲底高度 430m
29日10時 CEST ~ 29日12時 CEST に徐々に
風向・風速南南東 4m/s
TAF LFMN 280800Z 2809/2915 18005KT 9999 FEW025
BECMG 2819/2821 VRB03KT
PROB40 TEMPO 2821/2907 BKN014
BECMG 2908/2910 16008KT